Time;durP1;ratioP1;P1;durP2;ratioP2;P2;SDS_P1;SDS_P2;PMS_P1;PMS_P2;Temp;Humidity;BMP_temperature;BMP_pressure;BME280_temperature;BME280_humidity;BME280_pressure;Samples;Min_cycle;Max_cycle;Signal;HPM_P1;HPM_P2
2023/09/05 00:00:47;;;;;;;2.45;2.25;;;;;;;;;;5083384;28;20213;-85
2023/09/05 00:03:12;;;;;;;2.63;2.42;;;;;;;;;;5072049;28;20285;-85
2023/09/05 00:05:38;;;;;;;2.90;2.70;;;;;;;;;;5048649;28;20274;-85
2023/09/05 00:08:03;;;;;;;2.97;2.55;;;;;;;;;;5063067;28;20289;-86
2023/09/05 00:10:29;;;;;;;3.15;2.85;;;;;;;;;;5059515;28;20331;-85
2023/09/05 00:12:55;;;;;;;2.97;2.70;;;;;;;;;;5071153;28;20216;-85
2023/09/05 00:15:20;;;;;;;2.30;2.13;;;;;;;;;;5083239;28;20229;-85
2023/09/05 00:17:46;;;;;;;3.88;2.08;;;;;;;;;;5084402;28;20218;-84
2023/09/05 00:20:15;;;;;;;2.25;2.10;;;;;;;;;;5082625;28;20214;-85
2023/09/05 00:22:40;;;;;;;2.58;2.35;;;;;;;;;;5051378;28;20230;-85
2023/09/05 00:25:11;;;;;;;4.20;2.50;;;;;;;;;;5080117;28;20227;-85
2023/09/05 00:27:40;;;;;;;2.22;2.03;;;;;;;;;;5066022;28;20222;-86
2023/09/05 00:30:07;;;;;;;1.90;1.80;;;;;;;;;;5074901;28;20221;-85
2023/09/05 00:32:37;;;;;;;3.65;2.58;;;;;;;;;;5077812;28;20236;-86
2023/09/05 00:35:04;;;;;;;3.58;2.60;;;;;;;;;;5052106;28;20206;-86
2023/09/05 00:37:30;;;;;;;3.00;2.40;;;;;;;;;;5059033;28;20238;-86
2023/09/05 00:39:55;;;;;;;3.08;2.67;;;;;;;;;;5068602;28;20218;-87
2023/09/05 00:42:21;;;;;;;3.17;2.83;;;;;;;;;;5044771;28;20222;-87
2023/09/05 00:44:48;;;;;;;4.03;2.65;;;;;;;;;;5065187;28;20248;-87
2023/09/05 00:47:13;;;;;;;3.08;2.78;;;;;;;;;;5060305;28;20254;-86
2023/09/05 00:49:47;;;;;;;2.88;2.67;;;;;;;;;;5054825;28;20760;-87
2023/09/05 00:52:12;;;;;;;3.13;2.83;;;;;;;;;;5063748;28;20260;-87
2023/09/05 00:54:40;;;;;;;4.68;3.35;;;;;;;;;;5053600;28;20217;-87
2023/09/05 00:57:14;;;;;;;2.90;2.70;;;;;;;;;;5045864;28;20246;-87
2023/09/05 00:59:41;;;;;;;3.72;3.42;;;;;;;;;;5050947;28;20237;-86
2023/09/05 01:02:06;;;;;;;3.20;3.00;;;;;;;;;;5044974;28;20211;-87
2023/09/05 01:04:33;;;;;;;4.13;2.90;;;;;;;;;;5052844;28;20229;-87
2023/09/05 01:07:05;;;;;;;4.07;3.23;;;;;;;;;;5045521;28;20605;-87
2023/09/05 01:09:56;;;;;;;11.50;2.90;;;;;;;;;;5064133;28;20365;-87
2023/09/05 01:12:22;;;;;;;3.28;3.00;;;;;;;;;;5070189;28;20596;-86
2023/09/05 01:14:50;;;;;;;3.05;2.80;;;;;;;;;;5070661;28;20222;-86
2023/09/05 01:17:18;;;;;;;3.03;2.80;;;;;;;;;;5033028;28;20230;-87
2023/09/05 01:19:44;;;;;;;3.72;3.42;;;;;;;;;;5068582;28;20281;-86
2023/09/05 01:22:23;;;;;;;3.33;2.97;;;;;;;;;;5057104;28;20223;-87
2023/09/05 01:24:49;;;;;;;3.30;3.00;;;;;;;;;;5069496;28;20224;-87
2023/09/05 01:27:22;;;;;;;2.80;2.60;;;;;;;;;;5057702;28;20228;-86
2023/09/05 01:29:52;;;;;;;2.97;2.67;;;;;;;;;;5068175;28;20290;-86
2023/09/05 01:32:20;;;;;;;2.65;2.45;;;;;;;;;;5046980;28;20229;-86
2023/09/05 01:34:47;;;;;;;3.42;2.53;;;;;;;;;;5047505;28;20222;-86
2023/09/05 01:37:15;;;;;;;3.33;2.42;;;;;;;;;;5041357;28;20385;-86
2023/09/05 01:39:44;;;;;;;3.03;2.75;;;;;;;;;;5059691;28;20223;-86
2023/09/05 01:42:10;;;;;;;3.10;2.80;;;;;;;;;;5057274;28;20229;-86
2023/09/05 01:44:36;;;;;;;5.50;2.65;;;;;;;;;;5043112;28;20224;-87
2023/09/05 01:47:05;;;;;;;2.92;2.50;;;;;;;;;;5054044;28;20229;-86
2023/09/05 01:49:33;;;;;;;2.50;2.35;;;;;;;;;;5050036;28;20247;-86
2023/09/05 01:51:59;;;;;;;3.58;3.03;;;;;;;;;;5029325;28;20222;-86
2023/09/05 01:54:25;;;;;;;3.10;2.90;;;;;;;;;;5034798;28;20218;-86
2023/09/05 01:56:50;;;;;;;3.20;2.90;;;;;;;;;;5057860;28;20237;-85
2023/09/05 01:59:19;;;;;;;3.43;3.13;;;;;;;;;;5052598;28;20217;-87
2023/09/05 02:01:48;;;;;;;3.50;2.93;;;;;;;;;;5031989;28;20942;-86
2023/09/05 02:04:14;;;;;;;3.75;3.22;;;;;;;;;;5043513;28;20218;-87
2023/09/05 02:06:41;;;;;;;2.70;2.57;;;;;;;;;;5029753;28;20229;-86
2023/09/05 02:09:08;;;;;;;2.87;2.67;;;;;;;;;;5064319;28;20223;-86
2023/09/05 02:11:33;;;;;;;3.30;3.00;;;;;;;;;;5048590;28;20229;-86
2023/09/05 02:13:59;;;;;;;2.90;2.70;;;;;;;;;;5064434;28;20233;-86
2023/09/05 02:16:25;;;;;;;3.00;2.72;;;;;;;;;;5036648;28;20239;-86
2023/09/05 02:18:52;;;;;;;3.07;2.80;;;;;;;;;;5038611;28;20305;-86
2023/09/05 02:21:17;;;;;;;3.57;3.33;;;;;;;;;;5078302;28;20226;-86
2023/09/05 02:23:43;;;;;;;3.13;2.83;;;;;;;;;;5055418;28;20291;-85
2023/09/05 02:26:09;;;;;;;3.40;3.10;;;;;;;;;;5036494;28;20222;-86
2023/09/05 02:28:35;;;;;;;3.10;2.90;;;;;;;;;;5043316;28;20586;-85
2023/09/05 02:31:07;;;;;;;4.07;3.20;;;;;;;;;;5037465;28;20219;-85
2023/09/05 02:33:36;;;;;;;3.90;2.90;;;;;;;;;;5040347;28;20326;-85
2023/09/05 02:36:08;;;;;;;3.57;3.27;;;;;;;;;;5042537;28;20221;-85
2023/09/05 02:38:37;;;;;;;3.67;3.00;;;;;;;;;;5070221;28;20229;-86
2023/09/05 02:41:03;;;;;;;3.33;3.13;;;;;;;;;;5041272;28;20304;-86
2023/09/05 02:43:31;;;;;;;4.18;3.25;;;;;;;;;;5033886;28;20242;-86
2023/09/05 02:45:56;;;;;;;3.50;3.20;;;;;;;;;;5041794;28;20218;-86
2023/09/05 02:48:22;;;;;;;3.38;3.10;;;;;;;;;;5036058;28;20232;-86
2023/09/05 02:51:04;;;;;;;4.80;3.20;;;;;;;;;;5042574;28;20220;-85
2023/09/05 02:53:33;;;;;;;7.73;4.30;;;;;;;;;;5042133;28;20340;-85
2023/09/05 02:55:59;;;;;;;3.87;2.70;;;;;;;;;;5034570;28;20214;-85
2023/09/05 02:58:28;;;;;;;2.97;2.73;;;;;;;;;;5061636;28;20202;-86
2023/09/05 03:01:02;;;;;;;5.20;3.03;;;;;;;;;;5056141;28;20229;-85
2023/09/05 03:03:30;;;;;;;3.25;2.95;;;;;;;;;;5058702;28;20591;-85
2023/09/05 03:05:56;;;;;;;5.10;3.00;;;;;;;;;;5052810;28;20313;-85
2023/09/05 03:08:25;;;;;;;2.97;2.75;;;;;;;;;;5038193;28;20313;-86
2023/09/05 03:10:54;;;;;;;2.80;2.53;;;;;;;;;;5054300;28;20241;-86
2023/09/05 03:13:29;;;;;;;2.85;2.65;;;;;;;;;;5038167;28;20224;-84
2023/09/05 03:15:54;;;;;;;3.33;2.80;;;;;;;;;;5032635;28;20218;-83
2023/09/05 03:18:21;;;;;;;3.10;2.85;;;;;;;;;;5039107;28;20234;-84
2023/09/05 03:20:52;;;;;;;3.15;2.67;;;;;;;;;;5041887;28;20222;-85
2023/09/05 03:23:20;;;;;;;5.03;2.95;;;;;;;;;;5054831;28;20218;-86
2023/09/05 03:25:46;;;;;;;3.65;3.28;;;;;;;;;;5040501;28;20537;-86
2023/09/05 03:28:13;;;;;;;2.97;2.78;;;;;;;;;;5034334;28;20735;-86
2023/09/05 03:30:42;;;;;;;3.25;2.65;;;;;;;;;;5017775;28;20279;-87
2023/09/05 03:33:10;;;;;;;2.92;2.70;;;;;;;;;;5059568;28;20575;-86
2023/09/05 03:35:35;;;;;;;2.85;2.65;;;;;;;;;;5045957;28;20214;-86
2023/09/05 03:38:02;;;;;;;3.33;3.00;;;;;;;;;;5045521;28;20309;-86
2023/09/05 03:40:29;;;;;;;2.80;2.58;;;;;;;;;;5071118;28;20225;-88
2023/09/05 03:42:54;;;;;;;2.95;2.75;;;;;;;;;;5042606;28;20231;-88
2023/09/05 03:45:21;;;;;;;2.92;2.72;;;;;;;;;;5050515;28;20229;-86
2023/09/05 03:47:47;;;;;;;3.60;3.30;;;;;;;;;;5046785;28;20223;-85
2023/09/05 03:50:17;;;;;;;3.60;3.30;;;;;;;;;;5024746;28;20279;-85
2023/09/05 03:52:43;;;;;;;4.27;2.77;;;;;;;;;;5037493;28;20284;-84
2023/09/05 03:55:09;;;;;;;2.83;2.50;;;;;;;;;;5050954;28;20222;-84
2023/09/05 03:57:37;;;;;;;3.22;2.72;;;;;;;;;;5019258;28;20218;-85
2023/09/05 04:04:12;;;;;;;4.07;3.13;;;;;;;;;;5081029;28;20245;-85
2023/09/05 04:06:40;;;;;;;3.37;2.93;;;;;;;;;;5068743;28;20613;-84
2023/09/05 04:09:07;;;;;;;2.63;2.37;;;;;;;;;;5045329;28;20729;-84
2023/09/05 04:11:35;;;;;;;3.60;3.07;;;;;;;;;;5024264;28;20799;-84
2023/09/05 04:14:01;;;;;;;3.70;3.40;;;;;;;;;;5025466;28;20226;-85
2023/09/05 04:16:27;;;;;;;3.40;3.10;;;;;;;;;;5018937;28;20233;-85
2023/09/05 04:18:52;;;;;;;3.67;3.37;;;;;;;;;;5054990;28;20292;-85
2023/09/05 04:21:22;;;;;;;3.73;3.43;;;;;;;;;;5056816;28;20219;-85
2023/09/05 04:23:48;;;;;;;4.40;3.23;;;;;;;;;;5050133;28;20211;-86
2023/09/05 04:26:14;;;;;;;3.23;3.00;;;;;;;;;;5042448;28;20658;-85
2023/09/05 04:28:42;;;;;;;3.23;2.93;;;;;;;;;;5046104;28;20249;-85
2023/09/05 04:31:09;;;;;;;5.00;3.50;;;;;;;;;;5040820;28;20766;-85
2023/09/05 04:33:39;;;;;;;3.83;3.53;;;;;;;;;;5043827;28;20222;-84
2023/09/05 04:36:10;;;;;;;3.77;3.47;;;;;;;;;;5050074;28;20618;-85
2023/09/05 04:38:41;;;;;;;4.00;3.70;;;;;;;;;;5023026;28;20229;-85
2023/09/05 04:41:08;;;;;;;3.80;3.43;;;;;;;;;;5055443;28;20215;-85
2023/09/05 04:43:34;;;;;;;3.70;3.33;;;;;;;;;;5053321;28;20246;-85
2023/09/05 04:46:01;;;;;;;4.33;3.93;;;;;;;;;;5037767;28;20865;-85
2023/09/05 04:48:29;;;;;;;3.78;3.47;;;;;;;;;;5045901;28;20267;-87
2023/09/05 04:50:55;;;;;;;3.70;3.40;;;;;;;;;;5053125;28;20230;-87
2023/09/05 04:53:21;;;;;;;3.77;3.47;;;;;;;;;;5039328;28;20305;-85
2023/09/05 04:56:02;;;;;;;3.50;3.08;;;;;;;;;;5050407;28;20273;-85
2023/09/05 04:58:29;;;;;;;3.30;3.00;;;;;;;;;;5054745;28;20214;-85
2023/09/05 05:00:56;;;;;;;3.50;3.23;;;;;;;;;;5012054;28;20460;-86
2023/09/05 05:03:24;;;;;;;3.87;3.33;;;;;;;;;;5049426;28;20745;-86
2023/09/05 05:05:50;;;;;;;3.05;2.85;;;;;;;;;;5020623;28;20241;-87
2023/09/05 05:08:15;;;;;;;3.67;2.70;;;;;;;;;;5032130;28;20211;-88
2023/09/05 05:10:44;;;;;;;2.80;2.60;;;;;;;;;;5066717;28;20230;-87
2023/09/05 05:13:09;;;;;;;3.13;2.90;;;;;;;;;;5041987;28;20245;-87
2023/09/05 05:15:35;;;;;;;3.57;2.90;;;;;;;;;;5047659;28;20765;-86
2023/09/05 05:18:03;;;;;;;2.90;2.70;;;;;;;;;;5050888;28;20218;-87
2023/09/05 05:20:28;;;;;;;2.97;2.77;;;;;;;;;;5040452;28;20218;-87
2023/09/05 05:22:58;;;;;;;4.32;3.20;;;;;;;;;;5062444;28;20214;-84
2023/09/05 05:25:24;;;;;;;3.08;2.88;;;;;;;;;;5039602;28;20253;-86
2023/09/05 05:27:52;;;;;;;3.03;2.83;;;;;;;;;;5031453;28;20222;-86
2023/09/05 05:30:20;;;;;;;5.03;3.63;;;;;;;;;;5053685;28;20244;-86
2023/09/05 05:32:47;;;;;;;3.42;3.17;;;;;;;;;;5042570;28;20214;-87
2023/09/05 05:35:12;;;;;;;4.30;3.90;;;;;;;;;;5060426;28;20228;-86
2023/09/05 05:37:40;;;;;;;2.87;2.67;;;;;;;;;;5060400;28;20247;-86
2023/09/05 05:40:07;;;;;;;3.35;3.05;;;;;;;;;;5038914;28;20781;-87
2023/09/05 05:42:32;;;;;;;4.28;2.83;;;;;;;;;;5064019;28;20284;-87
2023/09/05 05:45:01;;;;;;;3.10;2.90;;;;;;;;;;5064750;28;20221;-87
2023/09/05 05:47:31;;;;;;;7.40;3.13;;;;;;;;;;5034824;28;20743;-86
2023/09/05 05:49:59;;;;;;;3.92;3.05;;;;;;;;;;5049832;28;20214;-87
2023/09/05 05:52:27;;;;;;;2.97;2.67;;;;;;;;;;5067869;28;20214;-87
2023/09/05 05:54:53;;;;;;;2.78;2.53;;;;;;;;;;5049738;28;20214;-85
2023/09/05 05:57:18;;;;;;;3.42;3.13;;;;;;;;;;5075060;28;20255;-84
2023/09/05 05:59:46;;;;;;;3.30;3.00;;;;;;;;;;5063216;28;20289;-84
2023/09/05 06:02:19;;;;;;;3.03;2.72;;;;;;;;;;5076795;28;20305;-84
2023/09/05 06:04:47;;;;;;;3.53;3.22;;;;;;;;;;5057926;28;20244;-85
2023/09/05 06:07:12;;;;;;;2.95;2.75;;;;;;;;;;5059835;28;20206;-87
2023/09/05 06:09:40;;;;;;;3.03;2.72;;;;;;;;;;5067853;28;20207;-86
2023/09/05 06:12:06;;;;;;;2.95;2.53;;;;;;;;;;5049686;28;20330;-85
2023/09/05 06:14:34;;;;;;;3.72;2.75;;;;;;;;;;5070705;28;20218;-85
2023/09/05 06:16:59;;;;;;;3.13;2.85;;;;;;;;;;5071190;28;20205;-87
2023/09/05 06:19:26;;;;;;;4.47;2.88;;;;;;;;;;5069420;28;21050;-86
2023/09/05 06:21:58;;;;;;;3.67;2.60;;;;;;;;;;5061775;28;20244;-86
2023/09/05 06:24:32;;;;;;;2.72;2.53;;;;;;;;;;5044944;28;20222;-85
2023/09/05 06:26:59;;;;;;;2.60;2.40;;;;;;;;;;5066364;28;20217;-85
2023/09/05 06:29:28;;;;;;;2.53;2.33;;;;;;;;;;5064627;28;20226;-86
2023/09/05 06:31:53;;;;;;;2.90;2.70;;;;;;;;;;5072980;28;20316;-86
2023/09/05 06:34:19;;;;;;;2.85;2.65;;;;;;;;;;5061300;28;20215;-85
2023/09/05 06:36:47;;;;;;;3.10;2.70;;;;;;;;;;5046243;28;20238;-85
2023/09/05 06:39:14;;;;;;;4.00;2.22;;;;;;;;;;5053132;28;20206;-84
2023/09/05 06:41:45;;;;;;;3.50;2.30;;;;;;;;;;5033713;28;20234;-86
2023/09/05 06:44:10;;;;;;;3.08;2.78;;;;;;;;;;5059859;28;20238;-86
2023/09/05 06:46:38;;;;;;;4.68;2.47;;;;;;;;;;5057355;28;20282;-85
2023/09/05 06:49:06;;;;;;;2.28;2.08;;;;;;;;;;5041945;28;20217;-85
2023/09/05 06:51:34;;;;;;;3.45;2.40;;;;;;;;;;5063942;28;20221;-85
2023/09/05 06:53:59;;;;;;;2.83;2.33;;;;;;;;;;5044047;28;20218;-85
2023/09/05 06:56:27;;;;;;;3.97;2.30;;;;;;;;;;5044836;28;20626;-87
2023/09/05 06:58:55;;;;;;;5.35;2.65;;;;;;;;;;5047289;28;20283;-85
2023/09/05 07:01:28;;;;;;;2.78;2.20;;;;;;;;;;5052353;28;20653;-84
2023/09/05 07:03:59;;;;;;;3.30;2.30;;;;;;;;;;5050930;28;20300;-87
2023/09/05 07:06:24;;;;;;;3.35;2.13;;;;;;;;;;5055791;28;20229;-86
2023/09/05 07:08:52;;;;;;;1.90;1.80;;;;;;;;;;5055768;28;20210;-84
2023/09/05 07:11:18;;;;;;;2.33;1.98;;;;;;;;;;5052018;28;20210;-86
2023/09/05 07:13:43;;;;;;;2.30;2.10;;;;;;;;;;5030543;28;20304;-86
2023/09/05 07:16:09;;;;;;;2.25;1.77;;;;;;;;;;5054142;28;20218;-86
2023/09/05 07:18:34;;;;;;;2.22;1.83;;;;;;;;;;5080356;28;20218;-85
2023/09/05 07:21:02;;;;;;;3.33;1.90;;;;;;;;;;5061038;28;20271;-85
2023/09/05 07:23:30;;;;;;;2.00;1.80;;;;;;;;;;5076616;28;20237;-86
2023/09/05 07:25:56;;;;;;;2.10;1.55;;;;;;;;;;5058837;28;20214;-88
2023/09/05 07:28:23;;;;;;;3.03;1.70;;;;;;;;;;5053679;28;20234;-86
2023/09/05 07:30:49;;;;;;;2.30;1.77;;;;;;;;;;5054671;28;20224;-87
2023/09/05 07:33:14;;;;;;;1.83;1.70;;;;;;;;;;5048005;28;20206;-85
2023/09/05 07:35:44;;;;;;;1.88;1.73;;;;;;;;;;5069434;28;20797;-87
2023/09/05 07:38:10;;;;;;;1.80;1.70;;;;;;;;;;5050948;28;20253;-86
2023/09/05 07:40:36;;;;;;;2.03;1.45;;;;;;;;;;5057231;28;20222;-86
2023/09/05 07:43:04;;;;;;;2.10;1.90;;;;;;;;;;5064434;28;20240;-85
2023/09/05 07:45:29;;;;;;;2.42;1.85;;;;;;;;;;5055918;28;20230;-88
2023/09/05 07:47:57;;;;;;;2.47;1.50;;;;;;;;;;5064770;28;20224;-85
2023/09/05 07:50:23;;;;;;;2.03;1.63;;;;;;;;;;5042848;28;20223;-85
2023/09/05 07:52:53;;;;;;;2.63;1.80;;;;;;;;;;5029096;28;20215;-86
2023/09/05 07:55:19;;;;;;;2.20;1.73;;;;;;;;;;5059168;28;20341;-86
2023/09/05 07:57:51;;;;;;;2.47;1.80;;;;;;;;;;5048731;28;20206;-87
2023/09/05 08:00:19;;;;;;;1.67;1.58;;;;;;;;;;5048870;28;20564;-86
2023/09/05 08:02:46;;;;;;;1.95;1.60;;;;;;;;;;5024655;28;20236;-86
2023/09/05 08:05:15;;;;;;;1.88;1.70;;;;;;;;;;5040906;28;20234;-86
2023/09/05 08:07:40;;;;;;;2.33;1.80;;;;;;;;;;5060839;28;20281;-86
2023/09/05 08:10:07;;;;;;;2.10;1.90;;;;;;;;;;5045174;28;20214;-86
2023/09/05 08:12:32;;;;;;;2.03;1.83;;;;;;;;;;5056881;28;20759;-87
2023/09/05 08:14:58;;;;;;;1.38;1.27;;;;;;;;;;5022736;28;20218;-85
2023/09/05 08:17:26;;;;;;;1.63;1.52;;;;;;;;;;5044357;28;20865;-84
2023/09/05 08:19:52;;;;;;;1.70;1.60;;;;;;;;;;5064119;28;20236;-85
2023/09/05 08:22:17;;;;;;;1.70;1.60;;;;;;;;;;5057516;28;20218;-86
2023/09/05 08:24:45;;;;;;;2.03;1.70;;;;;;;;;;5046162;28;20249;-86
2023/09/05 08:27:16;;;;;;;1.67;1.58;;;;;;;;;;5044512;28;20260;-85
2023/09/05 08:29:42;;;;;;;2.70;1.75;;;;;;;;;;5046479;28;20321;-87
2023/09/05 08:32:07;;;;;;;1.27;1.17;;;;;;;;;;5062394;28;20264;-86
2023/09/05 08:34:36;;;;;;;1.58;1.40;;;;;;;;;;5036406;28;20774;-87
2023/09/05 08:37:02;;;;;;;1.50;1.40;;;;;;;;;;5056895;28;20245;-87
2023/09/05 08:39:30;;;;;;;1.58;1.48;;;;;;;;;;5058537;28;20222;-86
2023/09/05 08:41:56;;;;;;;2.40;1.52;;;;;;;;;;5046858;28;20217;-86
2023/09/05 08:44:24;;;;;;;4.10;1.63;;;;;;;;;;5058101;28;20573;-87
2023/09/05 08:46:52;;;;;;;1.70;1.60;;;;;;;;;;5044790;28;20599;-87
2023/09/05 08:49:18;;;;;;;2.05;1.50;;;;;;;;;;5064444;28;20210;-87
2023/09/05 08:51:49;;;;;;;1.83;1.35;;;;;;;;;;5069412;28;20210;-85
2023/09/05 08:54:15;;;;;;;2.00;1.48;;;;;;;;;;5042663;28;20233;-86
2023/09/05 08:56:43;;;;;;;6.13;1.60;;;;;;;;;;5056023;28;20226;-87
2023/09/05 08:59:10;;;;;;;4.15;2.00;;;;;;;;;;5058110;28;20289;-87
2023/09/05 09:01:37;;;;;;;3.45;1.52;;;;;;;;;;5043544;28;20317;-87
2023/09/05 09:04:02;;;;;;;2.78;1.33;;;;;;;;;;5029713;28;20219;-85
2023/09/05 09:06:30;;;;;;;1.40;1.30;;;;;;;;;;5038814;28;20239;-86
2023/09/05 09:08:56;;;;;;;3.25;2.05;;;;;;;;;;5044407;28;20220;-88
2023/09/05 09:11:22;;;;;;;1.38;1.27;;;;;;;;;;5037417;28;20253;-86
2023/09/05 09:13:56;;;;;;;1.52;1.30;;;;;;;;;;5057936;28;20296;-86
2023/09/05 09:16:24;;;;;;;1.55;1.23;;;;;;;;;;5041767;28;20753;-85
2023/09/05 09:19:02;;;;;;;4.30;1.50;;;;;;;;;;5041694;28;20226;-85
2023/09/05 09:21:31;;;;;;;2.25;1.52;;;;;;;;;;5055798;28;20316;-85
2023/09/05 09:24:00;;;;;;;1.35;1.25;;;;;;;;;;5051472;28;20241;-85
2023/09/05 09:26:26;;;;;;;3.00;1.33;;;;;;;;;;5035305;28;20223;-86
2023/09/05 09:28:54;;;;;;;1.40;1.30;;;;;;;;;;5037696;28;20226;-86
2023/09/05 09:31:24;;;;;;;5.28;1.40;;;;;;;;;;5064297;28;20259;-86
2023/09/05 09:33:55;;;;;;;2.28;1.50;;;;;;;;;;5062855;28;20229;-85
2023/09/05 09:36:20;;;;;;;1.48;1.38;;;;;;;;;;5062362;28;20272;-86
2023/09/05 09:38:46;;;;;;;1.67;1.30;;;;;;;;;;5058557;28;20222;-87
2023/09/05 09:41:16;;;;;;;1.58;1.42;;;;;;;;;;5049182;28;20218;-85
2023/09/05 09:43:44;;;;;;;1.98;1.25;;;;;;;;;;5032812;28;20269;-83
2023/09/05 09:46:12;;;;;;;1.30;1.20;;;;;;;;;;5054848;28;20565;-85
2023/09/05 09:48:40;;;;;;;1.30;1.20;;;;;;;;;;5036889;28;20226;-87
2023/09/05 09:51:06;;;;;;;1.75;1.30;;;;;;;;;;5018032;28;20222;-87
2023/09/05 09:53:41;;;;;;;1.13;0.90;;;;;;;;;;5056483;28;20256;-85
2023/09/05 09:56:18;;;;;;;1.67;1.30;;;;;;;;;;5034921;28;20218;-85
2023/09/05 09:58:47;;;;;;;1.33;1.23;;;;;;;;;;5027447;28;20229;-85
2023/09/05 10:01:13;;;;;;;1.27;1.08;;;;;;;;;;5059520;28;20225;-85
2023/09/05 10:03:44;;;;;;;1.30;1.17;;;;;;;;;;5046987;28;20228;-84
2023/09/05 10:06:10;;;;;;;1.48;1.27;;;;;;;;;;5042217;28;20214;-86
2023/09/05 10:08:36;;;;;;;1.60;1.48;;;;;;;;;;5041506;28;20230;-86
2023/09/05 10:11:02;;;;;;;1.88;1.23;;;;;;;;;;5036791;28;20304;-87
2023/09/05 10:13:33;;;;;;;1.02;0.95;;;;;;;;;;5039426;28;20215;-85
2023/09/05 10:16:01;;;;;;;1.48;1.10;;;;;;;;;;5049899;28;20598;-85
2023/09/05 10:18:29;;;;;;;1.42;1.13;;;;;;;;;;5035912;28;20237;-86
2023/09/05 10:20:55;;;;;;;1.00;1.00;;;;;;;;;;5040466;28;20309;-86
2023/09/05 10:23:24;;;;;;;1.77;1.13;;;;;;;;;;5045413;28;20288;-85
2023/09/05 10:25:51;;;;;;;1.20;1.10;;;;;;;;;;5045596;28;20670;-86
2023/09/05 10:28:18;;;;;;;1.63;1.20;;;;;;;;;;5041060;28;20355;-86
2023/09/05 10:30:49;;;;;;;3.13;1.20;;;;;;;;;;5041809;28;20245;-85
2023/09/05 10:33:15;;;;;;;2.03;1.30;;;;;;;;;;5056045;28;20218;-85
2023/09/05 10:35:47;;;;;;;1.73;1.30;;;;;;;;;;5049047;28;20675;-86
2023/09/05 10:38:14;;;;;;;2.83;1.20;;;;;;;;;;5043507;28;20237;-85
2023/09/05 10:40:40;;;;;;;2.13;1.33;;;;;;;;;;5068287;28;20237;-85
2023/09/05 10:43:09;;;;;;;1.40;1.05;;;;;;;;;;5056350;28;20698;-85
2023/09/05 10:45:38;;;;;;;1.42;1.33;;;;;;;;;;5031229;28;20222;-86
2023/09/05 10:48:33;;;;;;;1.25;1.10;;;;;;;;;;5034930;28;20225;-88
2023/09/05 10:51:15;;;;;;;2.60;1.23;;;;;;;;;;5054318;28;20309;-86
2023/09/05 10:53:47;;;;;;;1.70;1.15;;;;;;;;;;5037603;28;20229;-86
2023/09/05 10:56:41;;;;;;;1.92;1.02;;;;;;;;;;5041647;28;20276;-87
2023/09/05 10:59:23;;;;;;;6.70;1.73;;;;;;;;;;5065200;28;20228;-88
2023/09/05 11:01:56;;;;;;;1.27;1.17;;;;;;;;;;5046440;28;20237;-89
2023/09/05 11:04:26;;;;;;;1.55;1.20;;;;;;;;;;5028945;28;20224;-88
2023/09/05 11:06:57;;;;;;;1.27;1.20;;;;;;;;;;5038699;28;20261;-87
2023/09/05 11:09:27;;;;;;;2.90;1.50;;;;;;;;;;5029246;28;20853;-85
2023/09/05 11:11:53;;;;;;;1.30;1.20;;;;;;;;;;5056190;28;20853;-85
2023/09/05 11:14:29;;;;;;;1.35;1.25;;;;;;;;;;5029595;28;20229;-86
2023/09/05 11:16:57;;;;;;;1.02;1.02;;;;;;;;;;5067666;28;20223;-86
2023/09/05 11:19:42;;;;;;;1.67;1.17;;;;;;;;;;5061855;28;20222;-87
2023/09/05 11:22:24;;;;;;;1.55;1.45;;;;;;;;;;5064057;28;20234;-86
2023/09/05 11:24:52;;;;;;;3.70;1.30;;;;;;;;;;5059535;28;20298;-86
2023/09/05 11:27:23;;;;;;;2.60;1.25;;;;;;;;;;5053928;28;20202;-86
2023/09/05 11:29:51;;;;;;;5.82;1.52;;;;;;;;;;5066525;28;20225;-88
2023/09/05 11:32:17;;;;;;;1.35;1.25;;;;;;;;;;5045227;28;20232;-87
2023/09/05 11:34:44;;;;;;;1.00;1.00;;;;;;;;;;5044730;28;20229;-85
2023/09/05 11:37:16;;;;;;;1.45;1.30;;;;;;;;;;5050792;28;20218;-87
2023/09/05 11:39:42;;;;;;;1.23;1.13;;;;;;;;;;5052305;28;20267;-85
2023/09/05 11:42:39;;;;;;;1.20;1.10;;;;;;;;;;5042227;28;20237;-87
2023/09/05 11:45:29;;;;;;;1.80;1.23;;;;;;;;;;5068035;28;20229;-88
2023/09/05 11:47:55;;;;;;;1.55;1.30;;;;;;;;;;5054839;28;20279;-86
2023/09/05 11:50:23;;;;;;;1.20;1.00;;;;;;;;;;5084978;28;20730;-86
2023/09/05 11:52:51;;;;;;;1.63;1.10;;;;;;;;;;5043774;28;21381;-86
2023/09/05 11:55:21;;;;;;;1.25;1.10;;;;;;;;;;5061054;28;20287;-86
2023/09/05 11:57:52;;;;;;;1.92;1.05;;;;;;;;;;5051671;28;20225;-86
2023/09/05 12:00:22;;;;;;;1.58;1.15;;;;;;;;;;5048808;28;20237;-88
2023/09/05 12:02:48;;;;;;;1.42;1.20;;;;;;;;;;5042745;28;20226;-88
2023/09/05 12:05:17;;;;;;;1.40;1.20;;;;;;;;;;5059786;28;20231;-86
2023/09/05 12:07:51;;;;;;;1.75;1.30;;;;;;;;;;5067664;28;20222;-85
2023/09/05 12:10:17;;;;;;;1.90;1.30;;;;;;;;;;5037797;28;20328;-84
2023/09/05 12:16:51;;;;;;;1.33;1.13;;;;;;;;;;4990192;28;20266;-84
2023/09/05 12:19:16;;;;;;;1.40;1.30;;;;;;;;;;5043327;28;20230;-85
2023/09/05 12:21:43;;;;;;;2.83;1.05;;;;;;;;;;5072423;28;20234;-87
2023/09/05 12:24:23;;;;;;;0.90;0.90;;;;;;;;;;5048027;28;20195;-85
2023/09/05 12:26:55;;;;;;;1.85;1.23;;;;;;;;;;5061351;28;20278;-86
2023/09/05 12:29:36;;;;;;;1.20;1.10;;;;;;;;;;5062211;28;20277;-85
2023/09/05 12:32:02;;;;;;;1.55;1.08;;;;;;;;;;5058843;28;20310;-83
2023/09/05 12:34:27;;;;;;;1.25;1.13;;;;;;;;;;5047413;28;20229;-88
2023/09/05 12:36:53;;;;;;;1.10;1.00;;;;;;;;;;5079516;28;20279;-88
2023/09/05 12:39:19;;;;;;;2.53;1.00;;;;;;;;;;5050075;28;20214;-85
2023/09/05 12:41:50;;;;;;;1.63;1.08;;;;;;;;;;5054119;28;20240;-83
2023/09/05 12:44:18;;;;;;;3.65;1.27;;;;;;;;;;5081332;28;20225;-89
2023/09/05 12:46:46;;;;;;;4.68;1.85;;;;;;;;;;5057119;28;20229;-86
2023/09/05 12:49:12;;;;;;;2.88;1.30;;;;;;;;;;5050861;28;20215;-88
2023/09/05 12:51:38;;;;;;;1.25;0.95;;;;;;;;;;5072497;28;20224;-88
2023/09/05 12:54:09;;;;;;;32.78;9.95;;;;;;;;;;5050028;28;20215;-87
2023/09/05 12:56:35;;;;;;;1.27;1.00;;;;;;;;;;5065857;28;20222;-86
2023/09/05 12:59:03;;;;;;;1.02;0.90;;;;;;;;;;5033913;28;20221;-88
2023/09/05 13:01:28;;;;;;;1.52;1.00;;;;;;;;;;5081324;28;20226;-87
2023/09/05 13:03:56;;;;;;;1.40;0.95;;;;;;;;;;5050785;28;20241;-87
2023/09/05 13:06:23;;;;;;;0.75;0.75;;;;;;;;;;5065477;28;20222;-87
2023/09/05 13:08:51;;;;;;;2.50;1.20;;;;;;;;;;5042731;28;20228;-85
2023/09/05 13:11:19;;;;;;;1.30;0.90;;;;;;;;;;5069137;28;20239;-86
2023/09/05 13:14:00;;;;;;;1.33;0.95;;;;;;;;;;5061880;28;20845;-85
2023/09/05 13:16:26;;;;;;;1.30;0.90;;;;;;;;;;5061729;28;20265;-87
2023/09/05 13:18:54;;;;;;;3.10;1.02;;;;;;;;;;5087504;28;20234;-88
2023/09/05 13:21:20;;;;;;;0.88;0.82;;;;;;;;;;5047873;28;20267;-88
2023/09/05 13:23:47;;;;;;;0.70;0.70;;;;;;;;;;5035591;28;20233;-87
2023/09/05 13:26:15;;;;;;;1.77;1.23;;;;;;;;;;5056224;28;20202;-85
2023/09/05 13:28:41;;;;;;;1.50;1.13;;;;;;;;;;5055389;28;20251;-87
2023/09/05 13:31:06;;;;;;;1.75;0.95;;;;;;;;;;5066672;28;20227;-85
2023/09/05 13:33:33;;;;;;;1.42;0.93;;;;;;;;;;5075585;28;20237;-86
2023/09/05 13:36:03;;;;;;;1.90;0.88;;;;;;;;;;5093032;28;20273;-85
2023/09/05 13:38:31;;;;;;;2.53;0.90;;;;;;;;;;5055386;28;20286;-83
2023/09/05 13:40:57;;;;;;;1.13;1.05;;;;;;;;;;5074989;28;20247;-87
2023/09/05 13:43:22;;;;;;;3.83;1.25;;;;;;;;;;5075598;28;20262;-87
2023/09/05 13:45:50;;;;;;;0.80;0.80;;;;;;;;;;5073048;28;20230;-88
2023/09/05 13:48:16;;;;;;;1.08;0.85;;;;;;;;;;5034439;28;20218;-86
2023/09/05 13:50:41;;;;;;;9.95;1.15;;;;;;;;;;5062722;28;20282;-85
2023/09/05 13:53:09;;;;;;;0.88;0.80;;;;;;;;;;5052949;28;20237;-87
2023/09/05 13:55:39;;;;;;;1.00;0.90;;;;;;;;;;5054442;28;20234;-89
2023/09/05 13:58:08;;;;;;;2.08;0.88;;;;;;;;;;5058128;28;20279;-87
2023/09/05 14:00:34;;;;;;;0.98;0.80;;;;;;;;;;5054821;28;20222;-90
2023/09/05 14:03:00;;;;;;;0.80;0.80;;;;;;;;;;5062633;28;20224;-87
2023/09/05 14:05:30;;;;;;;1.35;0.90;;;;;;;;;;5068408;28;20248;-89
2023/09/05 14:07:58;;;;;;;1.38;1.00;;;;;;;;;;5065882;28;20532;-87
2023/09/05 14:10:26;;;;;;;2.80;0.90;;;;;;;;;;5053872;28;20217;-88
2023/09/05 14:12:53;;;;;;;0.88;0.88;;;;;;;;;;5049298;28;20230;-87
2023/09/05 14:15:21;;;;;;;1.33;0.80;;;;;;;;;;5061813;28;20492;-86
2023/09/05 14:17:49;;;;;;;1.30;0.82;;;;;;;;;;5049668;28;20313;-86
2023/09/05 14:20:17;;;;;;;0.77;0.70;;;;;;;;;;5068063;28;20189;-88
2023/09/05 14:22:43;;;;;;;2.03;1.10;;;;;;;;;;5049064;28;20249;-88
2023/09/05 14:25:09;;;;;;;0.90;0.80;;;;;;;;;;5048426;28;20282;-87
2023/09/05 14:27:34;;;;;;;2.80;1.10;;;;;;;;;;5071948;28;20210;-94
2023/09/05 14:30:00;;;;;;;2.70;1.10;;;;;;;;;;5067669;28;20207;-90
2023/09/05 14:32:25;;;;;;;0.82;0.63;;;;;;;;;;5064126;28;20257;-89
2023/09/05 14:34:54;;;;;;;1.27;0.77;;;;;;;;;;5069340;28;20269;-88
2023/09/05 14:37:20;;;;;;;5.00;1.33;;;;;;;;;;5040047;28;20281;-88
2023/09/05 14:39:45;;;;;;;0.75;0.75;;;;;;;;;;5057366;28;20206;-92
2023/09/05 14:42:11;;;;;;;0.70;0.70;;;;;;;;;;5064241;28;20214;-91
2023/09/05 14:44:41;;;;;;;3.03;1.02;;;;;;;;;;5056582;28;20233;-91
2023/09/05 14:47:09;;;;;;;1.88;1.00;;;;;;;;;;5026888;28;20214;-88
2023/09/05 14:49:39;;;;;;;0.68;0.60;;;;;;;;;;5056156;28;20210;-87
2023/09/05 14:52:05;;;;;;;1.02;0.90;;;;;;;;;;5056550;28;20290;-89
2023/09/05 14:54:31;;;;;;;1.73;0.70;;;;;;;;;;5069784;28;20240;-89
2023/09/05 14:56:56;;;;;;;1.63;1.02;;;;;;;;;;5070844;28;20210;-88